Time;durP1;ratioP1;P1;durP2;ratioP2;P2;SDS_P1;SDS_P2;PMS_P1;PMS_P2;Temp;Humidity;BMP_temperature;BMP_pressure;BME280_temperature;BME280_humidity;BME280_pressure;Samples;Min_cycle;Max_cycle;Signal;HPM_P1;HPM_P2
2022/07/14 00:00:56;;;;;;;;;;;;;;;24.39;43.63;100076.50;1083235;54;19946;-77
2022/07/14 00:02:00;;;;;;;;;;;;;;;24.28;44.31;100069.97;1083309;54;19951;-78
2022/07/14 00:03:03;;;;;;;;;;;;;;;24.14;44.73;100074.81;1083322;54;19951;-77
2022/07/14 00:04:05;;;;;;;;;;;;;;;23.98;45.35;100076.31;1083280;54;20445;-77
2022/07/14 00:05:09;;;;;;;;;;;;;;;23.89;45.85;100068.66;1083358;54;19955;-76
2022/07/14 00:06:10;;;;;;;;;;;;;;;23.81;46.09;100075.28;1083036;54;20027;-77
2022/07/14 00:07:14;;;;;;;;;;;;;;;23.71;46.28;100077.72;1082651;54;19946;-76
2022/07/14 00:08:15;;;;;;;;;;;;;;;23.58;46.95;100081.47;1082833;54;20028;-77
2022/07/14 00:09:19;;;;;;;;;;;;;;;23.58;46.77;100067.84;1083127;54;19946;-77
2022/07/14 00:10:20;;;;;;;;;;;;;;;23.57;46.88;100075.16;1083120;54;19947;-76
2022/07/14 00:11:24;;;;;;;;;;;;;;;23.52;47.09;100072.31;1083198;54;19950;-77
2022/07/14 00:12:25;;;;;;;;;;;;;;;23.50;47.25;100069.81;1084091;54;19969;-78
2022/07/14 00:13:29;;;;;;;;;;;;;;;23.40;47.71;100077.72;1085019;54;19999;-79
2022/07/14 00:14:30;;;;;;;;;;;;;;;23.28;47.73;100065.91;1086564;46;19939;-80
2022/07/14 00:15:36;;;;;;;;;;;;;;;23.17;47.77;100068.28;1086285;54;19954;-79
2022/07/14 00:16:39;;;;;;;;;;;;;;;23.11;47.87;100061.03;1086245;54;19950;-78
2022/07/14 00:17:44;;;;;;;;;;;;;;;23.06;47.82;100059.00;1086492;54;19938;-78
2022/07/14 00:18:49;;;;;;;;;;;;;;;22.94;47.98;100066.25;1086422;54;19947;-79
2022/07/14 00:19:50;;;;;;;;;;;;;;;22.81;48.24;100069.13;1085944;54;19939;-77
2022/07/14 00:20:54;;;;;;;;;;;;;;;22.77;48.49;100059.72;1086327;54;20430;-78
2022/07/14 00:21:55;;;;;;;;;;;;;;;22.77;47.93;100068.72;1085621;54;20437;-79
2022/07/14 00:22:59;;;;;;;;;;;;;;;22.73;48.18;100060.16;1085832;31;20422;-79
2022/07/14 00:24:00;;;;;;;;;;;;;;;22.75;47.99;100062.69;1084181;54;19953;-79
2022/07/14 00:25:03;;;;;;;;;;;;;;;22.77;48.11;100057.81;1084503;54;19950;-79
2022/07/14 00:26:05;;;;;;;;;;;;;;;22.80;47.88;100062.00;1084462;54;19939;-77
2022/07/14 00:27:09;;;;;;;;;;;;;;;22.70;47.97;100062.50;1084559;54;20425;-78
2022/07/14 00:28:10;;;;;;;;;;;;;;;22.60;48.57;100049.41;1084544;54;19946;-78
2022/07/14 00:29:14;;;;;;;;;;;;;;;22.57;48.88;100060.75;1084785;54;19954;-79
2022/07/14 00:30:17;;;;;;;;;;;;;;;22.55;48.72;100058.25;1084271;54;19953;-78
2022/07/14 00:31:19;;;;;;;;;;;;;;;22.52;48.84;100063.31;1083952;54;19943;-78
2022/07/14 00:32:23;;;;;;;;;;;;;;;22.47;49.26;100063.13;1083870;54;19957;-78
2022/07/14 00:33:27;;;;;;;;;;;;;;;22.45;49.34;100063.38;1083769;54;19943;-79
2022/07/14 00:34:31;;;;;;;;;;;;;;;22.48;48.96;100057.50;1083964;54;20002;-79
2022/07/14 00:35:32;;;;;;;;;;;;;;;22.55;48.97;100058.25;1084134;54;19946;-78
2022/07/14 00:36:35;;;;;;;;;;;;;;;22.65;48.49;100059.63;1084059;54;19946;-78
2022/07/14 00:37:37;;;;;;;;;;;;;;;22.65;48.32;100049.56;1084355;54;19946;-78
2022/07/14 00:38:40;;;;;;;;;;;;;;;22.62;48.82;100051.91;1084266;54;19946;-78
2022/07/14 00:41:00;;;;;;;;;;;;;;;22.76;48.14;100048.00;1083960;54;19950;-78
2022/07/14 00:42:02;;;;;;;;;;;;;;;22.74;48.20;100048.22;1083406;54;19946;-79
2022/07/14 00:43:05;;;;;;;;;;;;;;;22.73;48.28;100045.72;1084072;39;20724;-77
2022/07/14 00:44:06;;;;;;;;;;;;;;;22.77;47.78;100046.09;1083099;54;19946;-77
2022/07/14 00:45:11;;;;;;;;;;;;;;;22.66;48.50;100044.97;1083073;54;19970;-76
2022/07/14 00:46:12;;;;;;;;;;;;;;;22.61;48.72;100045.63;1083048;54;19947;-77
2022/07/14 00:47:16;;;;;;;;;;;;;;;22.65;48.33;100040.56;1083976;54;19963;-79
2022/07/14 00:48:17;;;;;;;;;;;;;;;22.74;48.23;100053.66;1084327;54;19938;-79
2022/07/14 00:49:38;;;;;;;;;;;;;;;22.76;48.01;100039.84;1083699;54;19977;-79
2022/07/14 00:50:42;;;;;;;;;;;;;;;22.82;47.88;100044.38;1084981;39;20325;-78
2022/07/14 00:51:46;;;;;;;;;;;;;;;22.82;47.77;100040.78;1084048;54;19947;-79
2022/07/14 00:52:48;;;;;;;;;;;;;;;22.74;48.37;100050.13;1084375;54;19966;-79
2022/07/14 00:53:55;;;;;;;;;;;;;;;22.57;49.08;100044.41;1084098;54;19952;-80
2022/07/14 00:54:56;;;;;;;;;;;;;;;22.52;48.99;100046.97;1084224;54;19969;-79
2022/07/14 00:56:00;;;;;;;;;;;;;;;22.48;48.98;100045.75;1084385;54;19962;-78
2022/07/14 00:57:02;;;;;;;;;;;;;;;22.49;49.31;100048.25;1084190;54;20441;-80
2022/07/14 00:58:06;;;;;;;;;;;;;;;22.43;49.35;100049.97;1084935;31;20398;-78
2022/07/14 00:59:07;;;;;;;;;;;;;;;22.43;48.98;100044.50;1085250;39;20325;-79
2022/07/14 01:00:12;;;;;;;;;;;;;;;22.50;48.72;100038.19;1083879;54;19950;-79
2022/07/14 01:01:13;;;;;;;;;;;;;;;22.55;48.51;100039.19;1083491;54;20516;-78
2022/07/14 01:02:17;;;;;;;;;;;;;;;22.53;48.70;100044.03;1083456;54;20050;-78
2022/07/14 01:03:19;;;;;;;;;;;;;;;22.44;48.51;100038.00;1083971;54;19946;-78
2022/07/14 01:04:22;;;;;;;;;;;;;;;22.34;48.95;100034.94;1083926;54;19962;-77
2022/07/14 01:05:23;;;;;;;;;;;;;;;22.25;48.98;100048.00;1084087;54;20413;-77
2022/07/14 01:06:30;;;;;;;;;;;;;;;22.16;49.34;100038.44;1085880;39;20420;-78
2022/07/14 01:07:31;;;;;;;;;;;;;;;22.09;49.44;100040.41;1088583;46;19950;-79
2022/07/14 01:08:36;;;;;;;;;;;;;;;22.05;49.37;100053.63;1086807;54;19939;-78
2022/07/14 01:09:37;;;;;;;;;;;;;;;22.02;49.27;100045.88;1088547;46;19960;-77
2022/07/14 01:10:40;;;;;;;;;;;;;;;22.10;49.08;100045.59;1086399;54;19949;-77
2022/07/14 01:11:42;;;;;;;;;;;;;;;22.15;49.28;100042.22;1086348;54;19970;-78
2022/07/14 01:12:47;;;;;;;;;;;;;;;22.15;48.90;100041.41;1086309;54;19947;-77
2022/07/14 01:13:48;;;;;;;;;;;;;;;22.08;49.45;100036.81;1086562;54;19965;-77
2022/07/14 01:14:52;;;;;;;;;;;;;;;22.05;49.49;100044.59;1085660;54;19973;-77
2022/07/14 01:15:53;;;;;;;;;;;;;;;21.93;49.79;100048.03;1084256;54;19950;-78
2022/07/14 01:16:57;;;;;;;;;;;;;;;21.89;49.85;100046.81;1084022;54;19946;-78
2022/07/14 01:17:59;;;;;;;;;;;;;;;21.89;50.12;100051.41;1085505;54;19994;-78
2022/07/14 01:19:02;;;;;;;;;;;;;;;22.00;49.49;100041.72;1086807;46;19951;-80
2022/07/14 01:20:10;;;;;;;;;;;;;;;21.85;50.19;100042.03;1088352;46;19939;-78
2022/07/14 01:21:17;;;;;;;;;;;;;;;21.79;50.46;100046.47;1086602;54;19946;-77
2022/07/14 01:22:18;;;;;;;;;;;;;;;21.78;50.67;100044.78;1086519;54;19957;-78
2022/07/14 01:23:21;;;;;;;;;;;;;;;21.80;50.67;100045.41;1087616;39;20321;-77
2022/07/14 01:24:23;;;;;;;;;;;;;;;21.71;50.84;100046.72;1087329;46;19958;-78
2022/07/14 01:25:27;;;;;;;;;;;;;;;21.69;51.14;100048.81;1086218;54;19938;-78
2022/07/14 01:26:28;;;;;;;;;;;;;;;21.56;51.34;100044.25;1087034;46;19947;-77
2022/07/14 01:27:33;;;;;;;;;;;;;;;21.51;51.80;100036.75;1086340;54;19946;-78
2022/07/14 01:28:34;;;;;;;;;;;;;;;21.44;52.15;100047.66;1086447;46;19946;-77
2022/07/14 01:29:38;;;;;;;;;;;;;;;21.46;52.04;100039.28;1086551;54;19947;-76
2022/07/14 01:30:39;;;;;;;;;;;;;;;21.46;51.98;100033.84;1086994;46;19931;-78
2022/07/14 01:31:43;;;;;;;;;;;;;;;21.42;52.16;100033.44;1086337;54;19954;-78
2022/07/14 01:32:44;;;;;;;;;;;;;;;21.32;52.42;100041.22;1086880;46;19951;-78
2022/07/14 01:33:51;;;;;;;;;;;;;;;21.30;52.22;100038.72;1087368;39;20354;-78
2022/07/14 01:34:54;;;;;;;;;;;;;;;21.23;52.48;100035.22;1085948;54;19969;-77
2022/07/14 01:35:58;;;;;;;;;;;;;;;21.27;52.54;100031.00;1086122;54;19947;-78
2022/07/14 01:37:02;;;;;;;;;;;;;;;21.22;52.63;100038.97;1085878;54;20320;-78
2022/07/14 01:38:05;;;;;;;;;;;;;;;21.23;52.84;100037.06;1086061;54;19939;-77
2022/07/14 01:39:06;;;;;;;;;;;;;;;21.14;53.31;100037.31;1085931;54;19950;-78
2022/07/14 01:40:12;;;;;;;;;;;;;;;21.14;53.11;100031.06;1086222;54;19946;-79
2022/07/14 01:41:13;;;;;;;;;;;;;;;21.07;53.04;100036.53;1086793;54;20441;-78
2022/07/14 01:42:21;;;;;;;;;;;;;;;21.02;53.61;100033.59;1085930;54;19949;-79
2022/07/14 01:43:22;;;;;;;;;;;;;;;20.98;53.70;100038.63;1087386;39;20314;-79
2022/07/14 01:44:29;;;;;;;;;;;;;;;20.93;53.49;100041.16;1085589;54;19934;-79
2022/07/14 01:45:32;;;;;;;;;;;;;;;20.84;54.04;100042.44;1085479;54;20429;-79
2022/07/14 01:46:37;;;;;;;;;;;;;;;20.77;54.26;100037.00;1085392;54;19969;-81
2022/07/14 01:47:38;;;;;;;;;;;;;;;20.78;54.28;100035.16;1085636;54;19981;-81
2022/07/14 01:48:42;;;;;;;;;;;;;;;20.64;54.89;100035.13;1085486;54;20026;-79
2022/07/14 01:49:47;;;;;;;;;;;;;;;20.64;55.15;100037.03;1085286;54;19967;-80
2022/07/14 01:50:51;;;;;;;;;;;;;;;20.45;55.82;100036.81;1085789;54;19987;-79
2022/07/14 01:52:01;;;;;;;;;;;;;;;20.44;55.98;100037.03;1087824;54;19934;-78
2022/07/14 01:53:04;;;;;;;;;;;;;;;20.42;55.75;100035.34;1088049;54;19942;-80
2022/07/14 01:54:21;;;;;;;;;;;;;;;20.52;55.53;100036.81;1088220;54;19942;-80
2022/07/14 01:55:22;;;;;;;;;;;;;;;20.54;55.67;100030.16;1086849;54;19961;-80
2022/07/14 01:56:26;;;;;;;;;;;;;;;20.56;55.53;100032.66;1087490;54;19934;-79
2022/07/14 01:57:28;;;;;;;;;;;;;;;20.56;55.60;100032.66;1087621;54;19942;-79
2022/07/14 01:58:31;;;;;;;;;;;;;;;20.66;54.79;100045.78;1087575;54;19945;-81
2022/07/14 01:59:36;;;;;;;;;;;;;;;20.80;54.56;100036.59;1087736;54;19949;-80
2022/07/14 02:00:42;;;;;;;;;;;;;;;20.84;54.29;100039.72;1088126;54;19935;-79
2022/07/14 02:01:44;;;;;;;;;;;;;;;20.86;54.40;100035.75;1088136;54;19943;-80
2022/07/14 02:03:00;;;;;;;;;;;;;;;20.81;54.50;100040.13;1087738;54;19938;-81
2022/07/14 02:04:02;;;;;;;;;;;;;;;20.78;54.18;100029.72;1087857;54;19961;-78
2022/07/14 02:05:16;;;;;;;;;;;;;;;20.71;54.62;100026.97;1088176;54;19974;-78
2022/07/14 02:06:17;;;;;;;;;;;;;;;20.56;54.94;100036.19;1087279;54;19939;-81
2022/07/14 02:07:21;;;;;;;;;;;;;;;20.51;55.45;100032.41;1086380;46;19939;-80
2022/07/14 02:08:25;;;;;;;;;;;;;;;20.44;55.32;100031.59;1086721;54;19935;-79
2022/07/14 02:12:10;;;;;;;;;;;;;;;20.43;55.49;100038.94;1087302;54;19977;-78
2022/07/14 02:12:12;;;;;;;;;;;;;;;20.68;54.22;100033.69;1088447;54;19927;-79
2022/07/14 02:13:14;;;;;;;;;;;;;;;20.70;54.07;100037.00;1088205;54;19941;-80
2022/07/14 02:14:33;;;;;;;;;;;;;;;20.69;54.37;100029.88;1088122;39;20356;-80
2022/07/14 02:15:34;;;;;;;;;;;;;;;20.58;54.80;100038.69;1086870;54;20487;-79
2022/07/14 02:20:15;;;;;;;;;;;;;;;20.44;54.61;100034.31;1086843;54;19938;-79
2022/07/14 02:21:19;;;;;;;;;;;;;;;20.39;54.82;100043.94;1085412;54;19950;-80
2022/07/14 02:22:23;;;;;;;;;;;;;;;20.33;55.44;100043.94;1086978;54;20166;-79
2022/07/14 02:23:35;;;;;;;;;;;;;;;20.32;55.23;100042.25;1087401;54;19942;-79
2022/07/14 02:24:41;;;;;;;;;;;;;;;20.41;54.89;100039.13;1087559;54;19942;-80
2022/07/14 02:25:42;;;;;;;;;;;;;;;20.44;55.07;100043.31;1090709;39;20376;-79
2022/07/14 02:27:00;;;;;;;;;;;;;;;20.47;54.76;100036.63;1087465;54;19994;-78
2022/07/14 02:28:02;;;;;;;;;;;;;;;20.40;54.97;100036.63;1087326;54;20002;-78
2022/07/14 02:29:06;;;;;;;;;;;;;;;20.44;54.77;100037.88;1087827;54;20015;-76
2022/07/14 02:30:10;;;;;;;;;;;;;;;20.41;55.10;100043.72;1087911;54;20076;-77
2022/07/14 02:31:12;;;;;;;;;;;;;;;20.39;54.95;100041.22;1087696;54;19950;-77
2022/07/14 02:32:16;;;;;;;;;;;;;;;20.37;54.98;100046.03;1088340;54;20646;-77
2022/07/14 02:33:17;;;;;;;;;;;;;;;20.42;54.95;100043.50;1088242;54;19935;-76
2022/07/14 02:34:21;;;;;;;;;;;;;;;20.40;55.00;100036.63;1089539;46;19943;-76
2022/07/14 02:35:23;;;;;;;;;;;;;;;20.52;54.49;100039.53;1089630;46;19956;-77
2022/07/14 02:36:27;;;;;;;;;;;;;;;20.49;54.55;100040.78;1088084;54;19942;-77
2022/07/14 02:37:28;;;;;;;;;;;;;;;20.45;54.94;100033.28;1089301;46;19942;-77
2022/07/14 02:38:31;;;;;;;;;;;;;;;20.35;55.15;100039.13;1087773;54;19942;-76
2022/07/14 02:39:35;;;;;;;;;;;;;;;20.28;55.08;100039.13;1087641;54;19973;-76
2022/07/14 02:40:39;;;;;;;;;;;;;;;20.25;55.19;100039.53;1090121;39;20402;-77
2022/07/14 02:41:43;;;;;;;;;;;;;;;20.25;55.20;100032.25;1089821;46;19943;-76
2022/07/14 02:42:44;;;;;;;;;;;;;;;20.20;55.21;100031.22;1088259;54;19938;-76
2022/07/14 02:43:48;;;;;;;;;;;;;;;20.10;55.72;100029.75;1088157;54;19983;-76
2022/07/14 02:44:49;;;;;;;;;;;;;;;20.16;55.43;100032.66;1088028;54;19986;-78
2022/07/14 02:45:52;;;;;;;;;;;;;;;20.29;55.33;100027.25;1088017;54;19949;-76
2022/07/14 02:46:56;;;;;;;;;;;;;;;20.36;55.37;100025.34;1087676;54;19946;-77
2022/07/14 02:47:57;;;;;;;;;;;;;;;20.47;54.89;100031.19;1088453;54;19950;-77
2022/07/14 02:49:01;;;;;;;;;;;;;;;20.47;54.88;100020.34;1090157;46;19943;-77
2022/07/14 02:50:02;;;;;;;;;;;;;;;20.52;54.64;100024.09;1088335;54;19942;-76
2022/07/14 02:51:07;;;;;;;;;;;;;;;20.58;54.26;100027.84;1088447;54;19953;-78
2022/07/14 02:52:08;;;;;;;;;;;;;;;20.48;54.83;100020.09;1088825;46;19943;-76
2022/07/14 02:53:12;;;;;;;;;;;;;;;20.39;54.80;100024.09;1088296;54;19923;-77
2022/07/14 02:54:13;;;;;;;;;;;;;;;20.31;55.18;100030.56;1089712;39;20648;-76
2022/07/14 02:55:17;;;;;;;;;;;;;;;20.22;55.81;100027.25;1088102;54;19946;-77
2022/07/14 02:56:21;;;;;;;;;;;;;;;20.15;55.91;100022.84;1090755;46;20284;-77
2022/07/14 02:57:25;;;;;;;;;;;;;;;20.10;56.02;100027.03;1089025;46;19943;-76
2022/07/14 02:58:26;;;;;;;;;;;;;;;20.01;56.72;100022.84;1087758;54;19943;-77
2022/07/14 02:59:30;;;;;;;;;;;;;;;19.97;56.78;100031.63;1087839;54;19939;-76
2022/07/14 03:00:31;;;;;;;;;;;;;;;19.95;56.76;100029.09;1088341;47;19939;-76
2022/07/14 03:01:35;;;;;;;;;;;;;;;19.94;56.68;100019.28;1087806;54;19974;-76
2022/07/14 03:02:36;;;;;;;;;;;;;;;19.96;56.55;100022.63;1088001;47;19942;-76
2022/07/14 03:03:39;;;;;;;;;;;;;;;19.93;56.81;100020.34;1087802;54;20578;-76
2022/07/14 03:04:41;;;;;;;;;;;;;;;19.88;56.96;100023.69;1087688;54;19943;-76
2022/07/14 03:05:44;;;;;;;;;;;;;;;19.84;56.92;100025.09;1087828;54;20010;-76
2022/07/14 03:06:46;;;;;;;;;;;;;;;19.80;57.18;100026.53;1087677;54;19946;-75
2022/07/14 03:07:49;;;;;;;;;;;;;;;19.79;57.04;100024.84;1087825;54;20594;-78
2022/07/14 03:08:50;;;;;;;;;;;;;;;19.77;57.27;100029.66;1087746;54;19966;-76
2022/07/14 03:09:54;;;;;;;;;;;;;;;19.78;57.23;100029.47;1089389;39;21114;-76
2022/07/14 03:10:55;;;;;;;;;;;;;;;19.83;56.75;100028.84;1088052;54;19950;-76
2022/07/14 03:12:02;;;;;;;;;;;;;;;19.88;56.55;100018.25;1088165;54;19949;-77
2022/07/14 03:13:03;;;;;;;;;;;;;;;19.84;56.64;100022.38;1088211;54;19950;-76
2022/07/14 03:14:07;;;;;;;;;;;;;;;19.83;56.88;100023.41;1088177;54;19927;-76
2022/07/14 03:15:08;;;;;;;;;;;;;;;19.78;57.05;100032.16;1088145;54;19934;-76
2022/07/14 03:16:12;;;;;;;;;;;;;;;19.77;56.63;100016.94;1089818;39;20506;-76
2022/07/14 03:17:14;;;;;;;;;;;;;;;19.78;56.61;100024.03;1090436;47;20003;-75
2022/07/14 03:18:18;;;;;;;;;;;;;;;19.75;56.80;100035.28;1088223;54;19927;-75
2022/07/14 03:19:19;;;;;;;;;;;;;;;19.71;57.37;100025.91;1090230;47;19943;-76
2022/07/14 03:20:23;;;;;;;;;;;;;;;19.70;57.29;100032.38;1088080;54;19949;-77
2022/07/14 03:21:24;;;;;;;;;;;;;;;19.68;57.96;100031.72;1088102;54;19949;-76
2022/07/14 03:22:28;;;;;;;;;;;;;;;19.64;57.91;100031.31;1087648;54;19939;-77
2022/07/14 03:23:30;;;;;;;;;;;;;;;19.61;58.18;100028.16;1088007;54;19943;-76
2022/07/14 03:24:33;;;;;;;;;;;;;;;19.59;58.45;100031.09;1087890;54;19965;-79
2022/07/14 03:25:35;;;;;;;;;;;;;;;19.55;58.20;100026.28;1086946;54;19942;-78
2022/07/14 03:26:39;;;;;;;;;;;;;;;19.51;58.37;100027.72;1086523;54;19950;-78
2022/07/14 03:27:46;;;;;;;;;;;;;;;19.42;58.63;100027.06;1086692;54;19977;-77
2022/07/14 03:28:49;;;;;;;;;;;;;;;19.54;58.25;100021.91;1087117;54;19946;-77
2022/07/14 03:29:51;;;;;;;;;;;;;;;19.51;58.27;100019.59;1086599;47;19970;-78
2022/07/14 03:30:56;;;;;;;;;;;;;;;19.54;57.72;100014.59;1086761;54;19946;-78
2022/07/14 03:31:57;;;;;;;;;;;;;;;19.52;57.84;100023.97;1088624;39;20397;-78
2022/07/14 03:33:01;;;;;;;;;;;;;;;19.47;57.71;100022.69;1086698;54;19934;-78
2022/07/14 03:34:02;;;;;;;;;;;;;;;19.43;57.80;100023.31;1086141;54;19974;-78
2022/07/14 03:35:07;;;;;;;;;;;;;;;19.47;58.05;100017.28;1086444;54;19977;-78
2022/07/14 03:36:11;;;;;;;;;;;;;;;19.48;57.70;100013.53;1086813;54;19943;-78
2022/07/14 03:37:15;;;;;;;;;;;;;;;19.45;57.91;100021.25;1086873;54;19951;-77
2022/07/14 03:38:16;;;;;;;;;;;;;;;19.40;58.12;100023.75;1086199;54;20469;-78
2022/07/14 03:39:20;;;;;;;;;;;;;;;19.44;58.03;100027.69;1086623;39;20416;-78
2022/07/14 03:40:22;;;;;;;;;;;;;;;19.41;58.34;100023.53;1086540;54;19954;-80
2022/07/14 03:41:26;;;;;;;;;;;;;;;19.45;58.06;100030.22;1086350;54;19945;-78
2022/07/14 03:42:28;;;;;;;;;;;;;;;19.51;57.87;100025.84;1086849;54;19946;-78
2022/07/14 03:43:34;;;;;;;;;;;;;;;19.51;58.06;100027.72;1086299;54;19960;-78
2022/07/14 03:44:35;;;;;;;;;;;;;;;19.51;57.69;100031.25;1085759;54;19974;-78
2022/07/14 03:45:39;;;;;;;;;;;;;;;19.48;57.45;100029.78;1086817;54;19946;-79
2022/07/14 03:46:40;;;;;;;;;;;;;;;19.50;57.40;100035.03;1085501;54;19974;-79
2022/07/14 03:47:47;;;;;;;;;;;;;;;19.49;57.38;100031.47;1085326;54;19958;-80
2022/07/14 03:48:51;;;;;;;;;;;;;;;19.53;57.10;100040.03;1085909;54;19962;-79
2022/07/14 03:49:52;;;;;;;;;;;;;;;19.62;56.89;100035.28;1085439;54;19946;-79
2022/07/14 03:50:56;;;;;;;;;;;;;;;19.60;57.28;100043.59;1085262;54;19962;-79
2022/07/14 03:51:57;;;;;;;;;;;;;;;19.53;57.52;100041.91;1085087;54;19946;-79
2022/07/14 03:53:00;;;;;;;;;;;;;;;19.48;57.47;100043.34;1086033;39;20341;-79
2022/07/14 03:54:02;;;;;;;;;;;;;;;19.52;57.39;100045.66;1086488;54;20031;-79
2022/07/14 03:55:06;;;;;;;;;;;;;;;19.59;57.16;100046.50;1085517;54;19939;-80
2022/07/14 03:56:07;;;;;;;;;;;;;;;19.69;57.06;100052.38;1084966;54;19939;-79
2022/07/14 03:57:12;;;;;;;;;;;;;;;19.74;56.74;100044.47;1085063;54;19948;-79
2022/07/14 03:58:14;;;;;;;;;;;;;;;19.79;56.53;100041.97;1085225;54;20455;-79
2022/07/14 03:59:20;;;;;;;;;;;;;;;19.78;56.47;100043.00;1085853;47;19939;-78
2022/07/14 04:00:22;;;;;;;;;;;;;;;19.68;56.90;100049.88;1086140;54;19958;-80
2022/07/14 04:01:31;;;;;;;;;;;;;;;19.58;57.61;100056.53;1086247;54;20452;-79
2022/07/14 04:02:32;;;;;;;;;;;;;;;19.59;57.43;100057.34;1085930;47;20014;-78
2022/07/14 04:03:47;;;;;;;;;;;;;;;19.61;57.45;100055.28;1086539;54;19939;-79
2022/07/14 04:04:48;;;;;;;;;;;;;;;19.61;57.58;100047.16;1086415;54;19946;-80
2022/07/14 04:05:52;;;;;;;;;;;;;;;19.63;57.94;100054.03;1086397;54;19990;-78
2022/07/14 04:06:53;;;;;;;;;;;;;;;19.67;57.64;100057.16;1086328;54;19951;-79
2022/07/14 04:07:57;;;;;;;;;;;;;;;19.62;57.91;100052.34;1085657;54;19939;-80
2022/07/14 04:08:58;;;;;;;;;;;;;;;19.57;58.42;100056.72;1086031;54;19947;-80
2022/07/14 04:10:02;;;;;;;;;;;;;;;19.52;58.61;100056.50;1086652;54;19959;-79
2022/07/14 04:11:03;;;;;;;;;;;;;;;19.48;58.86;100054.19;1086407;54;19935;-80
2022/07/14 04:12:07;;;;;;;;;;;;;;;19.46;58.63;100058.97;1086703;54;19946;-81
2022/07/14 04:13:08;;;;;;;;;;;;;;;19.50;58.59;100062.16;1086296;54;19942;-78
2022/07/14 04:14:14;;;;;;;;;;;;;;;19.48;58.65;100050.66;1085471;54;19946;-79
2022/07/14 04:15:20;;;;;;;;;;;;;;;19.50;58.90;100059.44;1085022;54;19942;-78
2022/07/14 04:16:22;;;;;;;;;;;;;;;19.54;58.59;100059.84;1084825;54;19939;-79
2022/07/14 04:21:41;;;;;;;;;;;;;;;19.68;58.11;100063.44;1087535;46;19950;-80
2022/07/14 04:22:42;;;;;;;;;;;;;;;19.78;57.07;100062.00;1088877;46;20416;-81
2022/07/14 04:23:49;;;;;;;;;;;;;;;19.81;57.03;100058.03;1088236;46;19939;-79
2022/07/14 04:24:50;;;;;;;;;;;;;;;19.88;56.95;100067.06;1087192;54;19939;-78
2022/07/14 04:25:56;;;;;;;;;;;;;;;19.94;56.88;100065.38;1085398;54;19942;-80
2022/07/14 04:26:57;;;;;;;;;;;;;;;19.95;56.37;100061.63;1085382;54;19953;-79
2022/07/14 04:28:01;;;;;;;;;;;;;;;19.99;56.53;100068.34;1085337;46;19938;-80
2022/07/14 04:29:02;;;;;;;;;;;;;;;19.86;56.47;100068.31;1085469;54;20416;-79
2022/07/14 04:30:07;;;;;;;;;;;;;;;19.83;56.36;100066.00;1085078;54;19947;-78
2022/07/14 04:31:20;;;;;;;;;;;;;;;19.82;56.54;100069.75;1085393;54;19940;-78
2022/07/14 04:32:23;;;;;;;;;;;;;;;19.85;56.50;100069.31;1085993;54;19946;-79
2022/07/14 04:33:25;;;;;;;;;;;;;;;19.85;56.44;100072.03;1086396;54;19946;-79
2022/07/14 04:34:28;;;;;;;;;;;;;;;19.70;56.93;100059.47;1086736;39;20341;-78
2022/07/14 04:35:29;;;;;;;;;;;;;;;19.64;57.10;100065.72;1085434;54;19947;-79
2022/07/14 04:36:33;;;;;;;;;;;;;;;19.59;57.12;100063.63;1084349;54;19947;-76
2022/07/14 04:37:35;;;;;;;;;;;;;;;19.63;57.37;100070.31;1084142;54;19961;-78
2022/07/14 04:38:39;;;;;;;;;;;;;;;19.65;57.03;100061.94;1084563;54;20408;-79
2022/07/14 04:39:42;;;;;;;;;;;;;;;19.67;57.22;100065.31;1084208;54;20432;-79
2022/07/14 04:40:49;;;;;;;;;;;;;;;19.78;57.03;100058.47;1084301;54;20437;-79
2022/07/14 04:41:50;;;;;;;;;;;;;;;19.71;56.86;100061.16;1084297;54;19947;-78
2022/07/14 04:42:57;;;;;;;;;;;;;;;19.77;56.79;100070.34;1084178;54;19942;-79
2022/07/14 04:43:58;;;;;;;;;;;;;;;19.76;57.04;100063.25;1084391;54;19934;-78
2022/07/14 04:45:02;;;;;;;;;;;;;;;19.76;56.67;100057.84;1084513;54;20429;-79
2022/07/14 04:46:03;;;;;;;;;;;;;;;19.79;56.78;100062.81;1084677;39;20373;-79
2022/07/14 04:47:10;;;;;;;;;;;;;;;19.79;56.70;100062.81;1084286;54;19946;-78
2022/07/14 04:48:11;;;;;;;;;;;;;;;19.66;56.74;100066.34;1084348;54;19935;-78
2022/07/14 04:53:03;;;;;;;;;;;;;;;19.51;56.94;100065.69;1083829;54;20015;-78
2022/07/14 04:54:04;;;;;;;;;;;;;;;19.53;57.01;100063.59;1084023;54;20419;-78
2022/07/14 04:55:08;;;;;;;;;;;;;;;19.60;56.70;100070.69;1084220;46;19966;-78
2022/07/14 04:56:09;;;;;;;;;;;;;;;19.57;56.69;100070.28;1083838;54;19966;-78
2022/07/14 04:57:14;;;;;;;;;;;;;;;19.61;56.49;100066.13;1083898;54;19958;-78
2022/07/14 04:58:15;;;;;;;;;;;;;;;19.53;56.71;100066.31;1083808;54;19962;-78
2022/07/14 04:59:20;;;;;;;;;;;;;;;19.58;56.77;100071.94;1083743;54;20041;-79
2022/07/14 05:00:23;;;;;;;;;;;;;;;19.54;56.72;100066.09;1083900;54;19938;-78
2022/07/14 05:01:24;;;;;;;;;;;;;;;19.51;56.50;100066.50;1084238;54;19946;-77
2022/07/14 05:02:31;;;;;;;;;;;;;;;19.52;56.90;100070.88;1083985;54;20034;-79
2022/07/14 05:03:32;;;;;;;;;;;;;;;19.58;56.93;100071.94;1084372;54;19954;-78
2022/07/14 05:04:36;;;;;;;;;;;;;;;19.62;56.64;100062.38;1084227;54;19938;-78
2022/07/14 05:05:37;;;;;;;;;;;;;;;19.60;56.56;100067.16;1084402;54;19939;-78
2022/07/14 05:06:41;;;;;;;;;;;;;;;19.55;56.84;100064.25;1084343;54;19946;-79
2022/07/14 05:07:42;;;;;;;;;;;;;;;19.48;57.18;100062.31;1084364;54;19954;-78
2022/07/14 05:08:46;;;;;;;;;;;;;;;19.51;56.96;100057.53;1085511;54;19969;-79
2022/07/14 05:09:48;;;;;;;;;;;;;;;19.50;57.28;100054.00;1087581;54;19961;-78
2022/07/14 05:10:51;;;;;;;;;;;;;;;19.53;57.18;100052.75;1088795;46;20429;-79
2022/07/14 05:11:53;;;;;;;;;;;;;;;19.55;57.15;100056.09;1087801;46;19943;-79
2022/07/14 05:13:18;;;;;;;;;;;;;;;19.59;57.35;100058.22;1087328;54;20015;-79
2022/07/14 05:14:19;;;;;;;;;;;;;;;19.58;57.55;100056.53;1086383;54;19962;-78
2022/07/14 05:15:40;;;;;;;;;;;;;;;19.60;57.58;100048.19;1087053;46;19953;-77
2022/07/14 05:16:44;;;;;;;;;;;;;;;19.85;56.83;100044.91;1086509;54;19942;-79
2022/07/14 05:17:50;;;;;;;;;;;;;;;19.97;56.28;100046.00;1085054;54;19942;-79
2022/07/14 05:18:51;;;;;;;;;;;;;;;19.90;56.11;100040.56;1084450;54;20433;-78
2022/07/14 05:19:55;;;;;;;;;;;;;;;19.89;56.14;100044.31;1084072;54;19947;-78
2022/07/14 05:20:58;;;;;;;;;;;;;;;20.03;55.68;100041.63;1084788;54;19952;-79
2022/07/14 05:22:05;;;;;;;;;;;;;;;20.16;55.15;100035.38;1084339;54;19953;-78
2022/07/14 05:23:06;;;;;;;;;;;;;;;20.24;54.95;100037.88;1084703;54;19939;-80
2022/07/14 05:24:10;;;;;;;;;;;;;;;20.32;54.49;100034.13;1084279;54;19947;-78
2022/07/14 05:25:14;;;;;;;;;;;;;;;20.30;54.66;100036.19;1084113;54;19973;-78
2022/07/14 05:26:17;;;;;;;;;;;;;;;20.36;54.17;100027.22;1084221;54;19993;-78
2022/07/14 05:27:20;;;;;;;;;;;;;;;20.39;54.05;100033.09;1084407;54;19939;-78
2022/07/14 05:28:22;;;;;;;;;;;;;;;20.47;54.17;100029.28;1084197;54;19939;-78
2022/07/14 05:29:25;;;;;;;;;;;;;;;20.53;53.85;100022.19;1084151;54;19943;-79
2022/07/14 05:30:26;;;;;;;;;;;;;;;20.56;53.89;100014.47;1084350;54;19938;-78
2022/07/14 05:31:30;;;;;;;;;;;;;;;20.51;54.18;100021.56;1084733;54;19946;-78
2022/07/14 05:32:35;;;;;;;;;;;;;;;20.52;54.39;100010.50;1085043;39;20380;-79
2022/07/14 05:33:39;;;;;;;;;;;;;;;20.54;54.28;100021.16;1084354;54;19986;-79
2022/07/14 05:34:44;;;;;;;;;;;;;;;20.50;54.24;100004.44;1084427;54;19939;-79
2022/07/14 05:35:45;;;;;;;;;;;;;;;20.56;54.50;100010.91;1084245;54;19953;-80
2022/07/14 05:36:49;;;;;;;;;;;;;;;20.65;54.13;100006.94;1084601;46;19947;-80
2022/07/14 05:37:51;;;;;;;;;;;;;;;20.80;53.90;100011.31;1084448;54;20421;-78
2022/07/14 05:38:55;;;;;;;;;;;;;;;20.87;53.95;100017.56;1084485;54;19965;-78
2022/07/14 05:39:56;;;;;;;;;;;;;;;20.94;53.61;100007.50;1084195;54;20030;-78
2022/07/14 05:41:01;;;;;;;;;;;;;;;20.89;53.58;100012.75;1084227;54;19946;-79